Time;durP1;ratioP1;P1;durP2;ratioP2;P2;SDS_P1;SDS_P2;PMS_P1;PMS_P2;Temp;Humidity;BMP_temperature;BMP_pressure;BME280_temperature;BME280_humidity;BME280_pressure;Samples;Min_cycle;Max_cycle;Signal;HPM_P1;HPM_P2
2021/01/11 00:00:17;;;;;;;;;;;;;;;-7.01;85.83;93262.94;1063295;55;20576;-81
2021/01/11 00:01:19;;;;;;;;;;;;;;;-6.98;85.22;93264.16;1063491;55;20633;-82
2021/01/11 00:02:21;;;;;;;;;;;;;;;-6.97;85.42;93261.25;1065452;55;20645;-80
2021/01/11 00:03:22;;;;;;;;;;;;;;;-6.97;85.45;93266.47;1063207;55;20161;-80
2021/01/11 00:04:24;;;;;;;;;;;;;;;-6.80;84.80;93262.34;1063228;55;20665;-81
2021/01/11 00:05:25;;;;;;;;;;;;;;;-6.97;84.58;93270.87;1063294;55;20310;-81
2021/01/11 00:06:34;;;;;;;;;;;;;;;-6.89;84.59;93270.13;1063372;55;20166;-82
2021/01/11 00:07:35;;;;;;;;;;;;;;;-7.03;84.89;93274.69;1063495;55;20298;-81
2021/01/11 00:08:35;;;;;;;;;;;;;;;-6.87;85.36;93273.19;1063221;55;20261;-81
2021/01/11 00:09:36;;;;;;;;;;;;;;;-6.91;85.34;93273.03;1065397;55;20153;-81
2021/01/11 00:10:36;;;;;;;;;;;;;;;-6.89;85.00;93276.09;1063320;55;20247;-81
2021/01/11 00:11:39;;;;;;;;;;;;;;;-6.99;84.82;93271.19;1063415;55;20189;-80
2021/01/11 00:12:42;;;;;;;;;;;;;;;-6.99;85.40;93275.59;1069721;55;20190;-81
2021/01/11 00:13:42;;;;;;;;;;;;;;;-7.00;84.92;93274.84;1069575;55;20183;-80
2021/01/11 00:14:43;;;;;;;;;;;;;;;-7.00;85.19;93269.66;1067419;55;20149;-79
2021/01/11 00:15:43;;;;;;;;;;;;;;;-7.01;85.63;93275.16;1063153;55;20158;-80
2021/01/11 00:16:45;;;;;;;;;;;;;;;-7.04;86.13;93270.56;1063283;55;20646;-81
2021/01/11 00:17:45;;;;;;;;;;;;;;;-7.00;85.13;93279.28;1065346;55;20177;-81
2021/01/11 00:18:46;;;;;;;;;;;;;;;-6.91;84.83;93267.06;1065336;55;20247;-82
2021/01/11 00:19:46;;;;;;;;;;;;;;;-6.85;85.06;93271.06;1065360;55;20563;-80
2021/01/11 00:20:47;;;;;;;;;;;;;;;-6.85;84.23;93278.84;1063137;55;20568;-80
2021/01/11 00:21:50;;;;;;;;;;;;;;;-6.81;84.33;93269.38;1065427;55;20185;-80
2021/01/11 00:22:50;;;;;;;;;;;;;;;-6.93;84.33;93272.59;1067418;55;21047;-81
2021/01/11 00:23:52;;;;;;;;;;;;;;;-6.91;84.46;93265.25;1067585;55;20192;-81
2021/01/11 00:24:53;;;;;;;;;;;;;;;-6.95;84.44;93273.94;1067366;55;21196;-81
2021/01/11 00:25:53;;;;;;;;;;;;;;;-6.99;84.87;93265.22;1063211;55;20150;-81
2021/01/11 00:26:56;;;;;;;;;;;;;;;-7.08;85.28;93265.19;1065321;55;20157;-81
2021/01/11 00:27:58;;;;;;;;;;;;;;;-6.98;85.77;93274.53;1067724;55;20212;-80
2021/01/11 00:28:58;;;;;;;;;;;;;;;-6.96;85.09;93265.38;1067466;55;20630;-80
2021/01/11 00:29:59;;;;;;;;;;;;;;;-6.99;85.61;93273.00;1065339;55;20590;-80
2021/01/11 00:30:59;;;;;;;;;;;;;;;-7.11;84.87;93271.78;1067548;55;20249;-81
2021/01/11 00:32:00;;;;;;;;;;;;;;;-7.07;85.33;93271.91;1065314;55;20192;-81
2021/01/11 00:33:00;;;;;;;;;;;;;;;-7.11;85.21;93268.41;1067471;55;20176;-82
2021/01/11 00:34:01;;;;;;;;;;;;;;;-7.04;85.25;93270.56;1065229;55;20172;-82
2021/01/11 00:35:02;;;;;;;;;;;;;;;-7.08;84.93;93270.37;1065353;55;20158;-80
2021/01/11 00:36:03;;;;;;;;;;;;;;;-7.10;85.06;93277.72;1065321;55;20234;-80
2021/01/11 00:37:04;;;;;;;;;;;;;;;-7.03;84.92;93266.88;1065257;55;20634;-80
2021/01/11 00:38:04;;;;;;;;;;;;;;;-7.00;85.47;93267.06;1063282;55;20173;-81
2021/01/11 00:39:06;;;;;;;;;;;;;;;-6.95;84.89;93258.34;1063302;55;20614;-82
2021/01/11 00:40:07;;;;;;;;;;;;;;;-7.08;85.19;93272.22;1067539;55;20165;-82
2021/01/11 00:41:08;;;;;;;;;;;;;;;-7.11;84.91;93263.22;1065213;55;21036;-81
2021/01/11 00:42:11;;;;;;;;;;;;;;;-7.13;85.68;93262.75;1065357;55;20192;-80
2021/01/11 00:43:11;;;;;;;;;;;;;;;-7.13;85.56;93260.16;1067510;55;20157;-80
2021/01/11 00:44:13;;;;;;;;;;;;;;;-7.08;86.13;93261.84;1065388;55;20664;-83
2021/01/11 00:45:16;;;;;;;;;;;;;;;-7.05;86.08;93253.44;1063419;55;20169;-81
2021/01/11 00:46:23;;;;;;;;;;;;;;;-7.13;85.57;93254.94;1063296;55;20205;-81
2021/01/11 00:47:23;;;;;;;;;;;;;;;-7.19;84.75;93264.72;1067685;55;20737;-80
2021/01/11 00:48:24;;;;;;;;;;;;;;;-7.29;84.63;93262.38;1065238;55;20273;-81
2021/01/11 00:49:26;;;;;;;;;;;;;;;-7.17;84.34;93269.59;1063432;55;20181;-81
2021/01/11 00:50:26;;;;;;;;;;;;;;;-7.14;84.09;93269.00;1065446;55;20169;-80
2021/01/11 00:51:27;;;;;;;;;;;;;;;-7.29;84.12;93267.56;1065430;55;20173;-81
2021/01/11 00:52:29;;;;;;;;;;;;;;;-7.34;84.13;93267.69;1065315;55;20165;-81
2021/01/11 00:53:30;;;;;;;;;;;;;;;-7.38;84.25;93271.97;1063172;55;20225;-81
2021/01/11 00:54:30;;;;;;;;;;;;;;;-7.43;84.00;93266.91;1065380;55;20302;-81
2021/01/11 00:55:31;;;;;;;;;;;;;;;-7.50;85.03;93269.19;1065358;55;20293;-81
2021/01/11 00:56:32;;;;;;;;;;;;;;;-7.61;84.50;93259.03;1065123;55;20165;-81
2021/01/11 00:57:33;;;;;;;;;;;;;;;-7.67;85.18;93268.03;1065332;55;20172;-83
2021/01/11 00:58:34;;;;;;;;;;;;;;;-7.72;85.80;93262.22;1063090;55;20189;-80
2021/01/11 00:59:34;;;;;;;;;;;;;;;-7.78;85.26;93255.59;1065338;55;20222;-82
2021/01/11 01:00:35;;;;;;;;;;;;;;;-7.75;85.05;93268.75;1063173;55;20174;-81
2021/01/11 01:01:35;;;;;;;;;;;;;;;-7.83;85.98;93261.69;1063277;55;20166;-81
2021/01/11 01:02:36;;;;;;;;;;;;;;;-7.82;85.59;93259.84;1067921;55;20176;-80
2021/01/11 01:03:38;;;;;;;;;;;;;;;-7.95;85.93;93259.62;1065340;55;20157;-81
2021/01/11 01:04:39;;;;;;;;;;;;;;;-8.04;85.71;93253.63;1061066;56;20194;-80
2021/01/11 01:05:39;;;;;;;;;;;;;;;-8.14;86.30;93261.66;1058879;56;20170;-82
2021/01/11 01:06:40;;;;;;;;;;;;;;;-8.14;86.46;93256.47;1061041;56;20162;-81
2021/01/11 01:07:41;;;;;;;;;;;;;;;-8.24;86.59;93260.06;1063079;55;20228;-80
2021/01/11 01:08:41;;;;;;;;;;;;;;;-8.25;86.42;93260.34;1063194;55;20179;-82
2021/01/11 01:09:42;;;;;;;;;;;;;;;-8.30;86.15;93255.28;1063163;55;20166;-81
2021/01/11 01:10:43;;;;;;;;;;;;;;;-8.31;86.83;93258.94;1063051;55;20189;-82
2021/01/11 01:11:43;;;;;;;;;;;;;;;-8.38;86.42;93254.97;1063102;55;20250;-80
2021/01/11 01:12:44;;;;;;;;;;;;;;;-8.43;86.21;93257.69;1060883;56;20643;-81
2021/01/11 01:13:47;;;;;;;;;;;;;;;-8.50;86.23;93267.69;1061070;56;20159;-81
2021/01/11 01:14:48;;;;;;;;;;;;;;;-8.68;86.16;93266.00;1065482;55;20209;-81
2021/01/11 01:15:48;;;;;;;;;;;;;;;-8.68;86.26;93266.75;1065238;55;20627;-81
2021/01/11 01:16:48;;;;;;;;;;;;;;;-8.63;86.41;93258.88;1063150;55;20235;-81
2021/01/11 01:17:49;;;;;;;;;;;;;;;-8.58;86.38;93257.25;1065278;55;20254;-82
2021/01/11 01:18:50;;;;;;;;;;;;;;;-8.67;86.01;93262.34;1063099;55;20158;-80
2021/01/11 01:19:50;;;;;;;;;;;;;;;-8.75;86.42;93258.63;1063124;55;20184;-81
2021/01/11 01:20:51;;;;;;;;;;;;;;;-8.80;86.23;93263.16;1063085;55;20153;-80
2021/01/11 01:21:51;;;;;;;;;;;;;;;-8.84;85.80;93257.00;1063112;55;20164;-81
2021/01/11 01:22:52;;;;;;;;;;;;;;;-8.84;86.28;93257.78;1067519;55;20164;-81
2021/01/11 01:23:52;;;;;;;;;;;;;;;-8.76;86.38;93258.91;1065220;55;20162;-81
2021/01/11 01:24:54;;;;;;;;;;;;;;;-8.84;85.48;93260.38;1065441;55;20261;-81
2021/01/11 01:25:55;;;;;;;;;;;;;;;-8.95;86.04;93261.66;1067828;55;20168;-81
2021/01/11 01:26:55;;;;;;;;;;;;;;;-9.07;86.10;93267.31;1065387;55;20161;-80
2021/01/11 01:27:57;;;;;;;;;;;;;;;-9.14;85.92;93265.09;1065371;55;20196;-81
2021/01/11 01:28:59;;;;;;;;;;;;;;;-9.18;85.91;93265.97;1063068;55;20158;-82
2021/01/11 01:30:01;;;;;;;;;;;;;;;-9.09;85.29;93260.88;1063282;55;20184;-81
2021/01/11 01:31:01;;;;;;;;;;;;;;;-9.14;85.51;93262.50;1065189;55;20149;-81
2021/01/11 01:32:02;;;;;;;;;;;;;;;-9.19;85.95;93259.25;1063111;55;20658;-80
2021/01/11 01:33:03;;;;;;;;;;;;;;;-9.30;85.82;93260.53;1063074;55;20298;-81
2021/01/11 01:34:03;;;;;;;;;;;;;;;-9.21;85.96;93262.16;1063028;55;20650;-81
2021/01/11 01:35:04;;;;;;;;;;;;;;;-9.20;85.64;93261.09;1063108;55;20173;-81
2021/01/11 01:36:05;;;;;;;;;;;;;;;-9.14;85.29;93265.09;1063201;55;20184;-81
2021/01/11 01:37:05;;;;;;;;;;;;;;;-9.27;85.45;93271.06;1063198;55;20700;-80
2021/01/11 01:38:06;;;;;;;;;;;;;;;-9.18;85.94;93264.16;1065299;55;20176;-81
2021/01/11 01:39:06;;;;;;;;;;;;;;;-9.22;85.42;93265.00;1063167;55;20190;-81
2021/01/11 01:40:07;;;;;;;;;;;;;;;-9.20;85.81;93268.84;1063152;55;20582;-81
2021/01/11 01:41:12;;;;;;;;;;;;;;;-9.29;85.19;93265.41;1063155;55;20638;-80
2021/01/11 01:42:12;;;;;;;;;;;;;;;-9.44;85.22;93266.47;1065265;55;20352;-81
2021/01/11 01:43:15;;;;;;;;;;;;;;;-9.54;85.67;93271.06;1065277;55;20672;-82
2021/01/11 01:44:16;;;;;;;;;;;;;;;-9.57;85.36;93277.56;1063111;55;20153;-80
2021/01/11 01:45:16;;;;;;;;;;;;;;;-9.63;85.55;93270.94;1065223;55;20653;-82
2021/01/11 01:46:19;;;;;;;;;;;;;;;-9.71;85.15;93267.19;1063036;56;20255;-81
2021/01/11 01:47:21;;;;;;;;;;;;;;;-9.60;85.08;93267.03;1063202;55;20162;-81
2021/01/11 01:48:21;;;;;;;;;;;;;;;-9.66;85.23;93264.53;1065243;55;20736;-79
2021/01/11 01:49:22;;;;;;;;;;;;;;;-9.61;85.45;93263.69;1062949;56;21213;-83
2021/01/11 01:50:22;;;;;;;;;;;;;;;-9.64;85.25;93269.41;1060880;56;20177;-81
2021/01/11 01:51:23;;;;;;;;;;;;;;;-9.75;85.64;93271.41;1065196;55;20162;-81
2021/01/11 01:52:25;;;;;;;;;;;;;;;-9.77;85.84;93270.94;1060977;56;20624;-81
2021/01/11 01:53:25;;;;;;;;;;;;;;;-9.75;85.94;93268.81;1063443;55;20185;-81
2021/01/11 01:54:25;;;;;;;;;;;;;;;-9.78;86.07;93266.06;1065625;55;20168;-81
2021/01/11 01:55:27;;;;;;;;;;;;;;;-9.73;86.02;93269.31;1063556;55;20162;-81
2021/01/11 01:56:27;;;;;;;;;;;;;;;-9.80;85.47;93263.75;1064620;55;20229;-81
2021/01/11 01:57:28;;;;;;;;;;;;;;;-9.90;85.57;93274.25;1067783;55;20165;-80
2021/01/11 01:58:28;;;;;;;;;;;;;;;-9.86;85.19;93264.88;1070238;55;20176;-82
2021/01/11 01:59:29;;;;;;;;;;;;;;;-9.95;85.00;93267.34;1070227;55;20179;-81
2021/01/11 02:00:30;;;;;;;;;;;;;;;-9.90;85.14;93269.09;1065610;55;20166;-82
2021/01/11 02:01:30;;;;;;;;;;;;;;;-9.87;85.41;93272.94;1065583;55;20165;-81
2021/01/11 02:02:31;;;;;;;;;;;;;;;-9.93;85.68;93267.81;1065495;55;20165;-82
2021/01/11 02:03:31;;;;;;;;;;;;;;;-9.92;85.35;93266.00;1063322;55;22189;-82
2021/01/11 02:04:32;;;;;;;;;;;;;;;-10.02;85.03;93266.94;1065537;55;21168;-82
2021/01/11 02:05:32;;;;;;;;;;;;;;;-10.00;84.43;93264.88;1067679;55;20162;-81
2021/01/11 02:06:36;;;;;;;;;;;;;;;-10.01;84.11;93262.53;1065510;55;20176;-83
2021/01/11 02:07:52;;;;;;;;;;;;;;;-10.04;84.75;93268.31;1063579;55;20634;-81
2021/01/11 02:08:55;;;;;;;;;;;;;;;-10.09;85.06;93263.97;1063845;55;20248;-81
2021/01/11 02:10:01;;;;;;;;;;;;;;;-10.12;85.59;93267.12;1063587;55;20157;-82
2021/01/11 02:11:09;;;;;;;;;;;;;;;-10.08;85.60;93269.91;1065748;55;20581;-82
2021/01/11 02:12:16;;;;;;;;;;;;;;;-10.18;84.86;93266.44;1063609;55;20197;-81
2021/01/11 02:13:16;;;;;;;;;;;;;;;-10.44;84.26;93273.09;1063653;55;20555;-81
2021/01/11 02:14:22;;;;;;;;;;;;;;;-10.35;84.68;93271.41;1063451;55;20339;-80
2021/01/11 02:15:29;;;;;;;;;;;;;;;-10.37;85.02;93263.16;1063492;55;20639;-81
2021/01/11 02:16:29;;;;;;;;;;;;;;;-10.40;85.52;93266.31;1063671;55;20185;-83
2021/01/11 02:17:37;;;;;;;;;;;;;;;-10.35;85.94;93261.06;1063343;55;20153;-83
2021/01/11 02:18:37;;;;;;;;;;;;;;;-10.32;85.97;93262.28;1065682;55;20250;-82
2021/01/11 02:19:57;;;;;;;;;;;;;;;-10.26;85.56;93266.34;1065649;55;20612;-81
2021/01/11 02:21:00;;;;;;;;;;;;;;;-10.37;85.29;93262.38;1067741;55;20176;-81
2021/01/11 02:22:07;;;;;;;;;;;;;;;-10.37;85.67;93273.47;1065570;55;20704;-81
2021/01/11 02:23:16;;;;;;;;;;;;;;;-10.45;85.51;93274.09;1065810;55;20262;-83
2021/01/11 02:24:27;;;;;;;;;;;;;;;-10.41;85.42;93285.41;1063462;55;20197;-81
2021/01/11 02:25:31;;;;;;;;;;;;;;;-10.52;85.55;93284.03;1059554;56;20162;-83
2021/01/11 02:26:51;;;;;;;;;;;;;;;-10.61;86.09;93283.91;1061329;55;20267;-80
2021/01/11 02:27:56;;;;;;;;;;;;;;;-10.62;86.22;93284.16;1066375;55;20161;-80
2021/01/11 02:29:14;;;;;;;;;;;;;;;-10.73;85.41;93286.91;1068107;55;20245;-81
2021/01/11 02:30:25;;;;;;;;;;;;;;;-10.83;84.76;93276.72;1063425;55;20162;-82
2021/01/11 02:31:27;;;;;;;;;;;;;;;-10.81;84.72;93279.78;1062021;55;20651;-81
2021/01/11 02:32:29;;;;;;;;;;;;;;;-10.73;84.74;93279.16;1061308;56;20184;-81
2021/01/11 02:33:30;;;;;;;;;;;;;;;-10.67;85.28;93282.44;1063518;55;20245;-81
2021/01/11 02:34:32;;;;;;;;;;;;;;;-10.66;85.39;93281.41;1063367;55;20166;-81
2021/01/11 02:35:52;;;;;;;;;;;;;;;-10.73;85.10;93278.37;1063401;55;20638;-81
2021/01/11 02:36:54;;;;;;;;;;;;;;;-10.72;85.01;93277.34;1065478;55;20193;-83
2021/01/11 02:37:56;;;;;;;;;;;;;;;-10.72;85.35;93277.34;1065538;55;20210;-81
2021/01/11 02:38:56;;;;;;;;;;;;;;;-10.69;85.11;93272.38;1063429;55;20211;-82
2021/01/11 02:39:57;;;;;;;;;;;;;;;-10.71;84.29;93274.50;1061259;56;20220;-82
2021/01/11 02:40:57;;;;;;;;;;;;;;;-10.82;83.92;93272.31;1065625;55;20197;-82
2021/01/11 02:41:57;;;;;;;;;;;;;;;-10.91;84.56;93279.91;1065560;55;20254;-79
2021/01/11 02:42:58;;;;;;;;;;;;;;;-10.94;85.30;93272.72;1063399;55;20189;-80
2021/01/11 02:43:58;;;;;;;;;;;;;;;-11.00;86.40;93274.59;1063335;55;20177;-82
2021/01/11 02:44:59;;;;;;;;;;;;;;;-11.03;86.08;93266.66;1063379;55;20189;-81
2021/01/11 02:45:59;;;;;;;;;;;;;;;-10.99;86.06;93267.62;1065586;55;20157;-81
2021/01/11 02:47:00;;;;;;;;;;;;;;;-11.00;85.67;93263.53;1063412;55;20150;-81
2021/01/11 02:48:06;;;;;;;;;;;;;;;-11.00;85.33;93273.84;1063422;55;20166;-80
2021/01/11 02:49:17;;;;;;;;;;;;;;;-11.07;85.09;93269.00;1067701;55;20162;-82
2021/01/11 02:50:19;;;;;;;;;;;;;;;-11.10;85.42;93263.66;1063383;55;20162;-81
2021/01/11 02:51:27;;;;;;;;;;;;;;;-11.01;85.72;93273.09;1063593;55;20162;-81
2021/01/11 02:52:34;;;;;;;;;;;;;;;-10.96;85.08;93267.09;1065606;55;20161;-82
2021/01/11 02:53:37;;;;;;;;;;;;;;;-10.94;84.22;93273.50;1065523;55;20400;-83
2021/01/11 02:54:45;;;;;;;;;;;;;;;-10.97;84.01;93270.72;1065614;55;20180;-82
2021/01/11 02:56:03;;;;;;;;;;;;;;;-11.05;84.26;93273.91;1068089;55;20169;-81
2021/01/11 02:57:04;;;;;;;;;;;;;;;-11.16;84.71;93268.84;1063345;55;20631;-82
2021/01/11 02:58:20;;;;;;;;;;;;;;;-11.02;85.26;93268.19;1063488;55;20169;-82
2021/01/11 02:59:44;;;;;;;;;;;;;;;-11.04;84.62;93272.88;1061873;56;20721;-83
2021/01/11 03:00:46;;;;;;;;;;;;;;;-11.01;nan;93265.34;1060832;55;20184;-82
2021/01/11 03:01:55;;;;;;;;;;;;;;;-11.23;83.62;93265.88;1063519;55;20210;-82
2021/01/11 03:02:57;;;;;;;;;;;;;;;-11.36;84.01;93269.13;1063691;55;20170;-80
2021/01/11 03:03:59;;;;;;;;;;;;;;;-11.37;83.83;93262.41;1063488;55;20166;-82
2021/01/11 03:04:59;;;;;;;;;;;;;;;-11.24;83.46;93259.16;1063233;55;20251;-81
2021/01/11 03:06:00;;;;;;;;;;;;;;;-11.40;83.95;93262.97;1061317;56;20189;-83
2021/01/11 03:07:02;;;;;;;;;;;;;;;-11.45;84.11;93266.38;1063513;55;20653;-82
2021/01/11 03:08:03;;;;;;;;;;;;;;;-11.50;84.68;93265.66;1066141;55;22225;-82
2021/01/11 03:09:04;;;;;;;;;;;;;;;-11.52;85.82;93258.19;1063347;55;20149;-82
2021/01/11 03:10:05;;;;;;;;;;;;;;;-11.50;86.30;93258.72;1063469;55;20173;-81
2021/01/11 03:11:06;;;;;;;;;;;;;;;-11.49;86.21;93262.81;1065575;55;20157;-81
2021/01/11 03:12:07;;;;;;;;;;;;;;;-11.37;85.92;93261.63;1067748;55;20161;-80
2021/01/11 03:13:10;;;;;;;;;;;;;;;-11.37;85.52;93261.63;1067660;55;20184;-81
2021/01/11 03:14:12;;;;;;;;;;;;;;;-11.26;85.69;93266.41;1065485;55;20649;-82
2021/01/11 03:15:13;;;;;;;;;;;;;;;-11.23;85.25;93259.94;1063371;55;20284;-81
2021/01/11 03:16:14;;;;;;;;;;;;;;;-11.20;84.58;93262.72;1063468;55;20161;-83
2021/01/11 03:17:14;;;;;;;;;;;;;;;-11.22;83.62;93267.41;1063566;55;20189;-80
2021/01/11 03:18:15;;;;;;;;;;;;;;;-11.29;83.49;93263.59;1061213;56;20677;-81
2021/01/11 03:19:15;;;;;;;;;;;;;;;-11.25;83.52;93262.78;1063446;55;20158;-84
2021/01/11 03:20:16;;;;;;;;;;;;;;;-11.31;83.08;93265.72;1065533;55;21110;-80
2021/01/11 03:21:18;;;;;;;;;;;;;;;-11.55;83.73;93263.13;1061290;56;20186;-81
2021/01/11 03:22:19;;;;;;;;;;;;;;;-11.63;83.87;93259.38;1063383;55;20639;-82
2021/01/11 03:23:19;;;;;;;;;;;;;;;-11.46;84.04;93264.81;1065417;55;20177;-82
2021/01/11 03:24:21;;;;;;;;;;;;;;;-11.34;83.91;93264.44;1065620;55;20188;-82
2021/01/11 03:25:21;;;;;;;;;;;;;;;-11.46;83.83;93258.91;1065545;55;20185;-81
2021/01/11 03:26:25;;;;;;;;;;;;;;;-11.37;83.89;93251.31;1063424;55;20158;-82
2021/01/11 03:27:25;;;;;;;;;;;;;;;-11.44;83.57;93254.25;1061339;56;20174;-84
2021/01/11 03:28:27;;;;;;;;;;;;;;;-11.57;83.33;93254.91;1063447;55;20291;-82
2021/01/11 03:29:27;;;;;;;;;;;;;;;-11.49;83.85;93259.47;1068131;55;20193;-82
2021/01/11 03:30:27;;;;;;;;;;;;;;;-11.51;83.80;93253.81;1065513;55;20157;-80
2021/01/11 03:31:28;;;;;;;;;;;;;;;-11.52;84.26;93254.84;1065600;55;20169;-81
2021/01/11 03:32:29;;;;;;;;;;;;;;;-11.55;84.51;93253.59;1065625;55;20162;-81
2021/01/11 03:33:29;;;;;;;;;;;;;;;-11.56;84.60;93253.88;1063409;55;20172;-82
2021/01/11 03:34:30;;;;;;;;;;;;;;;-11.60;84.37;93250.28;1065539;55;20179;-83
2021/01/11 03:35:31;;;;;;;;;;;;;;;-11.62;84.77;93248.00;1065477;55;20217;-81
2021/01/11 03:36:32;;;;;;;;;;;;;;;-11.65;84.47;93251.12;1061165;56;20174;-81
2021/01/11 03:37:32;;;;;;;;;;;;;;;-11.61;84.24;93249.53;1063423;55;20629;-81
2021/01/11 03:38:33;;;;;;;;;;;;;;;-11.60;84.54;93248.50;1067638;55;20157;-82
2021/01/11 03:39:33;;;;;;;;;;;;;;;-11.54;84.53;93246.63;1061182;56;20596;-81
2021/01/11 03:40:34;;;;;;;;;;;;;;;-11.53;84.15;93250.75;1063276;55;20154;-80
2021/01/11 03:41:35;;;;;;;;;;;;;;;-11.55;83.82;93255.41;1067620;55;20179;-81
2021/01/11 03:42:36;;;;;;;;;;;;;;;-11.71;83.69;93249.66;1068021;55;20149;-82
2021/01/11 03:43:38;;;;;;;;;;;;;;;-11.72;84.57;93254.03;1065486;55;20266;-81
2021/01/11 03:44:38;;;;;;;;;;;;;;;-11.66;84.30;93249.59;1065518;55;20261;-81
2021/01/11 03:45:39;;;;;;;;;;;;;;;-11.77;83.99;93250.72;1063366;55;20190;-82
2021/01/11 03:46:39;;;;;;;;;;;;;;;-11.68;84.51;93254.25;1063241;55;20750;-83
2021/01/11 03:47:40;;;;;;;;;;;;;;;-11.75;83.38;93254.59;1063368;55;20157;-81
2021/01/11 03:48:42;;;;;;;;;;;;;;;-11.71;83.57;93257.38;1065531;55;20157;-81
2021/01/11 03:49:43;;;;;;;;;;;;;;;-11.69;83.43;93257.88;1065386;55;20162;-82
2021/01/11 03:50:43;;;;;;;;;;;;;;;-11.71;83.59;93255.56;1065466;55;20169;-82
2021/01/11 03:51:44;;;;;;;;;;;;;;;-11.67;83.47;93259.12;1063290;55;20775;-82
2021/01/11 03:52:44;;;;;;;;;;;;;;;-11.77;83.87;93255.87;1065485;55;20278;-82
2021/01/11 03:53:45;;;;;;;;;;;;;;;-11.84;84.37;93263.97;1063321;55;20657;-82
2021/01/11 03:54:46;;;;;;;;;;;;;;;-11.79;84.32;93253.59;1063482;55;20158;-80
2021/01/11 03:55:46;;;;;;;;;;;;;;;-11.85;84.45;93262.47;1063331;55;20681;-81
2021/01/11 03:56:47;;;;;;;;;;;;;;;-11.76;84.44;93258.22;1063015;55;20188;-81
2021/01/11 03:57:47;;;;;;;;;;;;;;;-11.69;84.17;93257.88;1065506;55;20654;-81
2021/01/11 03:58:48;;;;;;;;;;;;;;;-11.63;84.10;93256.78;1060930;56;20248;-82
2021/01/11 03:59:48;;;;;;;;;;;;;;;-11.60;nan;93256.22;1058952;56;20162;-81
2021/01/11 04:00:49;;;;;;;;;;;;;;;-11.47;84.48;93258.13;1061147;56;20239;-82
2021/01/11 04:01:50;;;;;;;;;;;;;;;-11.49;84.57;93260.22;1063249;55;20162;-80
2021/01/11 04:02:51;;;;;;;;;;;;;;;-11.49;85.01;93265.41;1063281;55;20634;-81
2021/01/11 04:03:51;;;;;;;;;;;;;;;-11.51;84.90;93262.31;1061185;56;20166;-81
2021/01/11 04:04:52;;;;;;;;;;;;;;;-11.49;84.59;93265.41;1063306;55;20165;-81
2021/01/11 04:05:53;;;;;;;;;;;;;;;-11.40;84.28;93268.13;1065331;55;20685;-81
2021/01/11 04:06:54;;;;;;;;;;;;;;;-11.42;84.09;93267.62;1065442;55;20162;-81
2021/01/11 04:07:54;;;;;;;;;;;;;;;-11.51;84.63;93269.28;1063214;55;20192;-79
2021/01/11 04:08:55;;;;;;;;;;;;;;;-11.58;85.65;93263.69;1063380;55;20169;-81
2021/01/11 04:09:55;;;;;;;;;;;;;;;-11.54;85.46;93269.84;1061258;56;20189;-81
2021/01/11 04:10:56;;;;;;;;;;;;;;;-11.48;85.29;93266.91;1061316;56;20256;-82
2021/01/11 04:11:56;;;;;;;;;;;;;;;-11.33;84.90;93262.63;1061189;56;20150;-82
2021/01/11 04:12:57;;;;;;;;;;;;;;;-11.53;84.72;93271.37;1061262;56;20610;-81
2021/01/11 04:13:57;;;;;;;;;;;;;;;-11.51;85.64;93262.31;1061203;56;20260;-82
2021/01/11 04:14:57;;;;;;;;;;;;;;;-11.51;86.11;93272.63;1063313;55;20162;-80
2021/01/11 04:15:58;;;;;;;;;;;;;;;-11.49;85.73;93264.63;1061162;56;20166;-82
2021/01/11 04:16:59;;;;;;;;;;;;;;;-11.40;84.80;93264.78;1061094;56;20712;-82
2021/01/11 04:17:59;;;;;;;;;;;;;;;-11.43;84.25;93268.69;1061137;56;20217;-80
2021/01/11 04:19:00;;;;;;;;;;;;;;;-11.25;84.94;93269.75;1065390;55;20169;-81
2021/01/11 04:20:01;;;;;;;;;;;;;;;-11.27;84.27;93266.69;1061061;56;20174;-82
2021/01/11 04:21:02;;;;;;;;;;;;;;;-11.21;84.21;93263.78;1061130;56;20158;-82
2021/01/11 04:22:02;;;;;;;;;;;;;;;-11.24;83.94;93259.16;1063201;55;20314;-81
2021/01/11 04:23:03;;;;;;;;;;;;;;;-11.26;84.66;93261.25;1061060;56;20159;-82
2021/01/11 04:24:04;;;;;;;;;;;;;;;-11.24;84.91;93254.00;1061164;55;20159;-82
2021/01/11 04:25:05;;;;;;;;;;;;;;;-11.19;85.23;93256.53;1063347;55;20165;-80
2021/01/11 04:26:08;;;;;;;;;;;;;;;-11.20;85.05;93254.22;1061067;56;20177;-82
2021/01/11 04:27:09;;;;;;;;;;;;;;;-11.26;85.20;93258.69;1059066;56;20170;-82
2021/01/11 04:28:11;;;;;;;;;;;;;;;-11.20;84.67;93257.56;1061190;55;20196;-82
2021/01/11 04:29:13;;;;;;;;;;;;;;;-11.10;84.57;93266.25;1063274;55;20158;-81
2021/01/11 04:30:17;;;;;;;;;;;;;;;-11.06;84.69;93259.44;1061387;56;20193;-80
2021/01/11 04:31:23;;;;;;;;;;;;;;;-10.96;84.59;93261.94;1063506;55;20179;-83
2021/01/11 04:32:24;;;;;;;;;;;;;;;-11.11;84.11;93255.13;1063175;55;20150;-81
2021/01/11 04:33:24;;;;;;;;;;;;;;;-11.18;85.08;93260.66;1061062;56;20196;-82
2021/01/11 04:34:26;;;;;;;;;;;;;;;-11.19;84.93;93261.69;1061200;56;20185;-81
2021/01/11 04:35:27;;;;;;;;;;;;;;;-11.04;84.54;93262.53;1063295;55;20174;-81
2021/01/11 04:36:31;;;;;;;;;;;;;;;-11.11;84.39;93262.87;1061071;56;20177;-81
2021/01/11 04:37:33;;;;;;;;;;;;;;;-10.93;84.93;93264.72;1063368;55;20578;-81
2021/01/11 04:38:35;;;;;;;;;;;;;;;-10.89;84.54;93262.31;1063155;55;20196;-80
2021/01/11 04:39:38;;;;;;;;;;;;;;;-11.00;84.65;93268.69;1063471;55;20199;-81
2021/01/11 04:40:39;;;;;;;;;;;;;;;-10.99;84.93;93267.62;1065806;55;20199;-82
2021/01/11 04:41:43;;;;;;;;;;;;;;;-10.93;84.73;93267.31;1063228;55;20200;-82
2021/01/11 04:42:46;;;;;;;;;;;;;;;-11.00;84.32;93261.72;1061191;56;20197;-80
2021/01/11 04:43:47;;;;;;;;;;;;;;;-11.10;84.98;93261.09;1059047;56;20185;-81
2021/01/11 04:44:47;;;;;;;;;;;;;;;-11.03;85.24;93259.66;1058937;56;20166;-81
2021/01/11 04:45:48;;;;;;;;;;;;;;;-11.00;84.54;93268.69;1058944;56;20158;-82
2021/01/11 04:46:49;;;;;;;;;;;;;;;-11.02;83.75;93266.34;1061106;56;20209;-82
2021/01/11 04:47:53;;;;;;;;;;;;;;;-11.01;83.93;93273.09;1059012;56;20213;-81
2021/01/11 04:48:53;;;;;;;;;;;;;;;-10.95;84.39;93274.53;1061381;55;20189;-82
2021/01/11 04:49:54;;;;;;;;;;;;;;;-10.92;84.58;93279.16;1063176;55;20170;-81
2021/01/11 04:50:56;;;;;;;;;;;;;;;-11.04;84.14;93278.78;1059096;56;20163;-82
2021/01/11 04:51:58;;;;;;;;;;;;;;;-11.11;85.02;93267.25;1061291;56;20196;-81
2021/01/11 04:53:00;;;;;;;;;;;;;;;-11.12;84.56;93270.91;1065409;55;20305;-83
2021/01/11 04:54:01;;;;;;;;;;;;;;;-11.05;83.70;93261.78;1063318;55;20165;-83
2021/01/11 04:55:03;;;;;;;;;;;;;;;-11.16;84.28;93263.69;1063267;55;20299;-82
2021/01/11 04:56:04;;;;;;;;;;;;;;;-11.20;85.14;93265.28;1063612;55;20172;-81
2021/01/11 04:57:07;;;;;;;;;;;;;;;-11.22;85.07;93267.41;1063309;55;20165;-81
2021/01/11 04:58:08;;;;;;;;;;;;;;;-11.07;84.89;93268.25;1065474;55;20572;-81
2021/01/11 04:59:10;;;;;;;;;;;;;;;-11.22;84.75;93280.28;1065336;55;20165;-82
2021/01/11 05:00:11;;;;;;;;;;;;;;;-11.19;84.76;93277.16;1063148;55;20181;-81
2021/01/11 05:01:13;;;;;;;;;;;;;;;-11.13;84.72;93277.09;1061115;56;20231;-82
2021/01/11 05:02:19;;;;;;;;;;;;;;;-11.09;85.00;93285.84;1060987;56;20158;-81
2021/01/11 05:03:22;;;;;;;;;;;;;;;-11.20;85.07;93280.00;1063631;55;20720;-82
2021/01/11 05:04:28;;;;;;;;;;;;;;;-11.18;84.47;93285.69;1065371;55;20161;-82
2021/01/11 05:05:29;;;;;;;;;;;;;;;-11.08;84.42;93282.19;1065424;55;21059;-80
2021/01/11 05:06:30;;;;;;;;;;;;;;;-11.07;84.17;93281.16;1065391;55;20214;-81
2021/01/11 05:07:31;;;;;;;;;;;;;;;-11.03;84.21;93288.06;1065345;55;20154;-81
2021/01/11 05:08:32;;;;;;;;;;;;;;;-11.10;84.26;93289.47;1063105;55;20158;-80
2021/01/11 05:09:32;;;;;;;;;;;;;;;-11.12;84.76;93294.88;1063169;55;20158;-80
2021/01/11 05:10:34;;;;;;;;;;;;;;;-11.04;85.13;93293.50;1065348;55;20250;-81
2021/01/11 05:11:35;;;;;;;;;;;;;;;-11.00;85.25;93292.69;1065418;55;21128;-82
2021/01/11 05:12:36;;;;;;;;;;;;;;;-10.98;86.00;93300.87;1065348;55;20146;-81
2021/01/11 05:13:37;;;;;;;;;;;;;;;-10.99;85.82;93294.19;1061095;56;20262;-81
2021/01/11 05:14:37;;;;;;;;;;;;;;;-10.97;85.83;93297.28;1063250;55;20167;-80
2021/01/11 05:15:41;;;;;;;;;;;;;;;-10.97;86.10;93294.72;1065319;55;20722;-81
2021/01/11 05:16:41;;;;;;;;;;;;;;;-11.00;85.97;93297.84;1065495;55;20157;-81
2021/01/11 05:17:43;;;;;;;;;;;;;;;-10.83;85.67;93301.75;1065300;55;20157;-81
2021/01/11 05:18:44;;;;;;;;;;;;;;;-10.69;85.14;93300.03;1065133;55;20676;-81
2021/01/11 05:19:44;;;;;;;;;;;;;;;-10.58;84.04;93292.91;1065347;55;20169;-80